Time;durP1;ratioP1;P1;durP2;ratioP2;P2;SDS_P1;SDS_P2;PMS_P1;PMS_P2;Temp;Humidity;BMP_temperature;BMP_pressure;BME280_temperature;BME280_humidity;BME280_pressure;Samples;Min_cycle;Max_cycle;Signal;HPM_P1;HPM_P2
2021/09/25 00:01:48;;;;;;;9.23;3.90;;;17.10;84.10;;;;;;5025628;28;20085;-60
2021/09/25 00:04:15;;;;;;;10.82;4.10;;;17.10;84.20;;;;;;5026199;28;20045;-60
2021/09/25 00:06:42;;;;;;;10.10;3.97;;;17.10;84.50;;;;;;5025389;28;20079;-59
2021/09/25 00:09:09;;;;;;;8.32;4.28;;;17.00;84.30;;;;;;5026146;28;20057;-60
2021/09/25 00:11:35;;;;;;;8.02;3.97;;;17.10;84.40;;;;;;5025799;28;20518;-60
2021/09/25 00:14:02;;;;;;;9.77;4.55;;;17.10;84.40;;;;;;5025912;28;20570;-61
2021/09/25 00:16:29;;;;;;;7.85;3.85;;;17.10;84.30;;;;;;5026282;28;20053;-60
2021/09/25 00:18:57;;;;;;;9.40;3.42;;;17.00;84.40;;;;;;5025659;28;20552;-60
2021/09/25 00:21:24;;;;;;;7.05;3.55;;;17.00;84.70;;;;;;5025690;28;20139;-60
2021/09/25 00:23:51;;;;;;;16.00;5.35;;;17.00;84.90;;;;;;5025950;28;20193;-59
2021/09/25 00:26:18;;;;;;;10.80;3.95;;;17.00;84.90;;;;;;5023717;28;20080;-60
2021/09/25 00:28:45;;;;;;;14.43;4.28;;;17.00;85.00;;;;;;5028421;28;20072;-60
2021/09/25 00:31:12;;;;;;;9.10;4.18;;;17.00;84.60;;;;;;5027497;28;20092;-60
2021/09/25 00:33:38;;;;;;;5.65;3.88;;;17.00;84.70;;;;;;4681869;28;10000485;-59
2021/09/25 00:36:05;;;;;;;8.68;4.10;;;17.00;84.70;;;;;;5025638;28;20106;-60
2021/09/25 00:38:32;;;;;;;11.15;3.13;;;16.90;84.90;;;;;;5029512;28;20049;-62
2021/09/25 00:40:59;;;;;;;5.40;3.58;;;16.90;85.00;;;;;;5028510;28;20148;-60
2021/09/25 00:43:26;;;;;;;10.32;3.42;;;16.90;85.10;;;;;;5029284;28;20136;-60
2021/09/25 00:45:52;;;;;;;6.00;3.05;;;16.90;84.90;;;;;;5029144;28;20077;-62
2021/09/25 00:48:19;;;;;;;9.18;4.82;;;16.90;85.20;;;;;;5028979;28;20152;-61
2021/09/25 00:50:46;;;;;;;8.50;4.05;;;16.80;85.20;;;;;;5029218;28;20048;-62
2021/09/25 00:53:13;;;;;;;7.90;4.00;;;16.80;85.30;;;;;;5028161;28;20053;-62
2021/09/25 00:55:40;;;;;;;8.13;4.05;;;16.80;85.50;;;;;;5030060;28;20103;-61
2021/09/25 00:58:06;;;;;;;10.75;4.43;;;16.80;85.60;;;;;;5029882;28;20137;-61
2021/09/25 01:00:34;;;;;;;5.70;3.53;;;16.80;85.50;;;;;;5025560;28;20080;-60
2021/09/25 01:03:01;;;;;;;6.00;3.42;;;16.80;85.90;;;;;;5029745;28;20037;-61
2021/09/25 01:05:28;;;;;;;8.65;3.97;;;16.80;86.10;;;;;;5028445;28;20087;-60
2021/09/25 01:07:56;;;;;;;5.35;3.47;;;16.80;86.20;;;;;;5029502;28;20041;-61
2021/09/25 01:10:23;;;;;;;8.32;3.80;;;16.80;86.50;;;;;;5029749;28;20099;-61
2021/09/25 01:12:50;;;;;;;9.25;3.60;;;16.80;86.50;;;;;;5028143;28;20431;-60
2021/09/25 01:15:17;;;;;;;5.88;3.90;;;16.90;86.60;;;;;;5029713;28;20180;-61
2021/09/25 01:17:44;;;;;;;12.23;4.68;;;16.90;87.00;;;;;;5026379;28;20125;-60
2021/09/25 01:20:12;;;;;;;8.02;3.67;;;17.00;87.30;;;;;;5029417;28;20380;-61
2021/09/25 01:22:38;;;;;;;7.85;3.65;;;17.00;87.40;;;;;;5027795;28;20061;-60
2021/09/25 01:25:06;;;;;;;6.22;4.10;;;17.10;87.30;;;;;;5027928;28;20041;-61
2021/09/25 01:27:33;;;;;;;7.75;3.65;;;17.10;87.60;;;;;;5029331;28;20045;-60
2021/09/25 01:30:00;;;;;;;7.38;4.57;;;17.20;87.80;;;;;;5027952;28;20065;-64
2021/09/25 01:32:27;;;;;;;9.77;5.10;;;17.20;87.80;;;;;;5029197;28;20168;-60
2021/09/25 01:34:54;;;;;;;9.75;5.05;;;17.20;88.00;;;;;;5028717;28;20077;-60
2021/09/25 01:37:20;;;;;;;12.95;6.80;;;17.20;88.10;;;;;;5029399;28;20104;-60
2021/09/25 01:39:47;;;;;;;10.20;6.63;;;17.10;89.00;;;;;;5029168;28;20472;-60
2021/09/25 01:42:14;;;;;;;10.40;7.50;;;17.00;91.00;;;;;;5029180;28;20073;-61
2021/09/25 01:44:41;;;;;;;15.75;7.25;;;16.90;90.00;;;;;;5028993;28;20523;-61
2021/09/25 01:47:07;;;;;;;10.50;6.78;;;16.90;89.90;;;;;;5028816;28;20084;-61
2021/09/25 01:49:45;;;;;;;15.65;7.43;;;17.00;90.00;;;;;;5027940;28;20057;-61
2021/09/25 01:52:12;;;;;;;12.82;7.53;;;17.00;90.30;;;;;;5028487;28;20445;-61
2021/09/25 01:54:39;;;;;;;12.50;7.30;;;17.00;90.00;;;;;;5028995;28;20059;-61
2021/09/25 01:57:06;;;;;;;12.23;8.25;;;17.00;90.00;;;;;;5032829;28;20480;-60
2021/09/25 01:59:33;;;;;;;14.88;8.65;;;17.00;90.40;;;;;;5028044;28;21321;-63
2021/09/25 02:02:01;;;;;;;17.15;8.00;;;16.90;90.40;;;;;;5027842;28;20496;-61
2021/09/25 02:04:30;;;;;;;11.38;8.43;;;16.80;91.60;;;;;;5023747;28;20059;-60
2021/09/25 02:06:56;;;;;;;18.75;8.98;;;16.80;90.60;;;;;;5010574;28;20096;-60
2021/09/25 02:09:23;;;;;;;10.90;8.32;;;16.70;90.90;;;;;;5027699;28;20096;-60
2021/09/25 02:11:50;;;;;;;15.63;9.00;;;16.70;90.60;;;;;;5027738;28;20122;-60
2021/09/25 02:14:17;;;;;;;12.48;8.70;;;16.70;90.70;;;;;;5026854;28;20053;-60
2021/09/25 02:16:43;;;;;;;12.57;9.30;;;16.70;90.80;;;;;;5028000;28;20041;-60
2021/09/25 02:19:10;;;;;;;17.92;10.35;;;16.80;91.20;;;;;;5028420;28;20049;-60
2021/09/25 02:21:37;;;;;;;15.35;10.13;;;16.70;90.80;;;;;;5027995;28;20057;-60
2021/09/25 02:24:04;;;;;;;18.40;10.95;;;16.70;90.90;;;;;;5026751;28;20049;-61
2021/09/25 02:26:31;;;;;;;17.77;10.43;;;16.70;91.20;;;;;;5026727;28;20053;-60
2021/09/25 02:28:58;;;;;;;15.98;11.30;;;16.60;91.00;;;;;;5027759;28;20041;-60
2021/09/25 02:31:24;;;;;;;17.02;9.88;;;16.70;90.90;;;;;;5028514;28;20095;-60
2021/09/25 02:33:51;;;;;;;14.77;10.77;;;16.70;90.90;;;;;;5026911;28;20045;-60
2021/09/25 02:36:18;;;;;;;15.27;10.38;;;16.80;90.80;;;;;;5027821;28;20124;-60
2021/09/25 02:38:45;;;;;;;21.23;11.65;;;16.80;90.70;;;;;;5027642;28;20128;-60
2021/09/25 02:41:12;;;;;;;17.75;11.43;;;16.70;91.00;;;;;;5027262;28;20049;-60
2021/09/25 02:43:38;;;;;;;20.30;11.15;;;16.80;90.90;;;;;;5021612;28;20072;-60
2021/09/25 02:46:05;;;;;;;18.45;11.93;;;16.70;90.90;;;;;;5027497;28;20073;-60
2021/09/25 02:48:32;;;;;;;13.90;11.13;;;16.70;91.10;;;;;;5027626;28;20084;-60
2021/09/25 02:50:59;;;;;;;17.45;11.52;;;16.70;91.00;;;;;;5028002;28;20049;-60
2021/09/25 02:53:31;;;;;;;18.25;12.25;;;16.80;91.00;;;;;;5026188;28;20500;-60
2021/09/25 02:55:58;;;;;;;20.90;13.23;;;16.80;91.00;;;;;;5026721;28;20046;-60
2021/09/25 02:58:25;;;;;;;19.73;11.52;;;16.70;91.00;;;;;;5027468;28;20045;-60
2021/09/25 03:00:52;;;;;;;17.00;12.07;;;16.80;91.10;;;;;;5012888;28;20634;-60
2021/09/25 03:03:19;;;;;;;17.77;12.63;;;16.80;91.30;;;;;;5008162;28;20099;-62
2021/09/25 03:05:46;;;;;;;16.20;11.60;;;16.90;91.00;;;;;;5027050;28;20049;-61
2021/09/25 03:08:12;;;;;;;18.10;12.40;;;16.90;90.90;;;;;;5025922;28;20053;-61
2021/09/25 03:10:39;;;;;;;21.27;12.65;;;17.00;90.90;;;;;;5026020;28;20516;-61
2021/09/25 03:13:06;;;;;;;15.20;11.95;;;17.00;90.80;;;;;;5027262;28;20054;-61
2021/09/25 03:15:33;;;;;;;17.98;12.15;;;17.00;90.80;;;;;;5027619;28;20054;-61
2021/09/25 03:18:00;;;;;;;16.35;11.82;;;17.10;90.80;;;;;;5027659;28;20049;-61
2021/09/25 03:20:27;;;;;;;17.23;11.85;;;17.00;90.80;;;;;;5027280;28;20103;-61
2021/09/25 03:22:54;;;;;;;17.52;12.05;;;17.00;90.80;;;;;;5025883;28;20049;-62
2021/09/25 03:25:20;;;;;;;21.15;12.23;;;17.00;90.80;;;;;;5025492;28;20069;-61
2021/09/25 03:27:50;;;;;;;17.92;11.00;;;17.00;90.80;;;;;;5026959;28;20049;-60
2021/09/25 03:30:17;;;;;;;14.80;11.15;;;17.00;90.80;;;;;;5026935;28;20072;-60
2021/09/25 03:32:45;;;;;;;16.95;11.05;;;17.00;90.80;;;;;;5025199;28;20049;-61
2021/09/25 03:35:12;;;;;;;19.27;11.52;;;17.00;90.80;;;;;;5025974;28;20041;-60
2021/09/25 03:37:39;;;;;;;17.42;11.68;;;17.00;90.80;;;;;;5024949;28;20491;-59
2021/09/25 03:40:06;;;;;;;14.48;11.23;;;17.00;90.90;;;;;;5026670;28;20085;-60
2021/09/25 03:42:33;;;;;;;21.15;10.98;;;17.00;90.80;;;;;;5026633;28;20049;-60
2021/09/25 03:45:00;;;;;;;15.07;11.07;;;17.10;90.80;;;;;;5026702;28;20045;-60
2021/09/25 03:47:27;;;;;;;15.02;10.90;;;17.10;90.70;;;;;;5025119;28;20058;-60
2021/09/25 03:49:53;;;;;;;17.58;10.95;;;17.10;90.70;;;;;;5025626;28;20100;-60
2021/09/25 03:52:20;;;;;;;17.50;10.90;;;17.10;90.70;;;;;;5026113;28;20088;-60
2021/09/25 03:54:47;;;;;;;14.85;11.00;;;17.10;90.70;;;;;;5029563;28;20080;-60
2021/09/25 03:57:14;;;;;;;17.10;11.30;;;17.10;90.60;;;;;;5026348;28;20068;-59
2021/09/25 03:59:40;;;;;;;15.20;9.65;;;17.20;90.60;;;;;;5026485;28;20042;-60
2021/09/25 04:02:07;;;;;;;15.25;10.70;;;17.10;90.60;;;;;;5018681;28;20134;-60
2021/09/25 04:04:34;;;;;;;13.13;8.73;;;17.10;90.60;;;;;;5027980;28;20077;-60
2021/09/25 04:07:01;;;;;;;14.05;9.18;;;17.10;90.60;;;;;;5028820;28;20496;-60
2021/09/25 04:09:28;;;;;;;13.45;9.52;;;17.10;90.60;;;;;;5030098;28;20049;-60
2021/09/25 04:11:54;;;;;;;17.25;11.70;;;17.10;90.60;;;;;;5030385;28;20049;-60
2021/09/25 04:14:22;;;;;;;15.95;11.20;;;17.20;90.70;;;;;;5027097;28;20079;-59
2021/09/25 04:16:49;;;;;;;18.10;12.25;;;17.10;90.70;;;;;;5029159;28;20053;-60
2021/09/25 04:19:16;;;;;;;16.65;11.23;;;17.10;90.80;;;;;;5029890;28;20065;-60
2021/09/25 04:21:43;;;;;;;23.10;11.15;;;17.00;90.80;;;;;;5028586;28;20116;-61
2021/09/25 04:24:10;;;;;;;20.70;11.80;;;17.00;90.80;;;;;;5029874;28;20072;-61
2021/09/25 04:26:36;;;;;;;16.17;11.07;;;17.00;90.80;;;;;;5030322;28;20153;-61
2021/09/25 04:29:03;;;;;;;16.50;10.93;;;17.00;90.90;;;;;;5028101;28;20143;-61
2021/09/25 04:31:34;;;;;;;19.52;10.30;;;17.00;91.10;;;;;;5030350;28;20042;-59
2021/09/25 04:34:02;;;;;;;14.32;10.13;;;17.00;90.90;;;;;;5029910;28;20053;-60
2021/09/25 04:36:29;;;;;;;15.80;10.15;;;17.00;90.80;;;;;;5030073;28;20061;-60
2021/09/25 04:38:56;;;;;;;19.05;10.02;;;17.10;90.70;;;;;;5028612;28;20140;-60
2021/09/25 04:41:23;;;;;;;19.02;11.23;;;17.20;90.80;;;;;;5028603;28;20080;-60
2021/09/25 04:43:50;;;;;;;15.98;11.30;;;17.10;90.60;;;;;;5029766;28;20050;-61
2021/09/25 04:46:16;;;;;;;13.55;9.10;;;17.20;90.60;;;;;;5030421;28;20049;-60
2021/09/25 04:48:48;;;;;;;17.40;10.20;;;17.20;90.50;;;;;;5029773;28;20516;-61
2021/09/25 04:51:18;;;;;;;13.82;9.73;;;17.20;90.60;;;;;;5028227;28;20081;-60
2021/09/25 04:53:45;;;;;;;19.02;9.95;;;17.10;90.60;;;;;;5026699;28;20049;-60
2021/09/25 04:56:12;;;;;;;16.23;10.13;;;17.10;90.60;;;;;;5029858;28;20488;-61
2021/09/25 04:58:39;;;;;;;15.00;10.27;;;17.20;90.60;;;;;;5012068;28;20053;-61
2021/09/25 05:01:06;;;;;;;15.18;9.73;;;17.20;90.60;;;;;;5027807;28;20115;-61
2021/09/25 05:03:33;;;;;;;12.88;9.82;;;17.20;90.60;;;;;;5029681;28;20488;-61
2021/09/25 05:06:01;;;;;;;18.90;10.95;;;17.10;90.60;;;;;;5029284;28;20472;-61
2021/09/25 05:08:28;;;;;;;16.23;10.27;;;17.20;90.60;;;;;;5030152;28;20060;-60
2021/09/25 05:10:55;;;;;;;14.55;9.98;;;17.20;90.60;;;;;;5029230;28;20073;-61
2021/09/25 05:13:21;;;;;;;16.38;9.80;;;17.20;90.50;;;;;;5027730;28;20522;-60
2021/09/25 05:15:48;;;;;;;15.68;9.73;;;17.20;90.50;;;;;;5029159;28;20038;-61
2021/09/25 05:18:15;;;;;;;12.70;8.88;;;17.20;90.50;;;;;;5029625;28;20041;-61
2021/09/25 05:20:42;;;;;;;14.05;9.65;;;17.20;90.50;;;;;;5028655;28;20084;-60
2021/09/25 05:23:09;;;;;;;15.07;9.95;;;17.20;90.40;;;;;;5029430;28;20116;-61
2021/09/25 05:25:36;;;;;;;18.05;11.02;;;17.20;90.50;;;;;;5029120;28;20124;-60
2021/09/25 05:28:03;;;;;;;22.42;10.00;;;17.20;90.50;;;;;;5029324;28;20049;-60
2021/09/25 05:30:30;;;;;;;16.02;10.15;;;17.20;90.40;;;;;;5028893;28;20247;-61
2021/09/25 05:32:56;;;;;;;14.88;10.00;;;17.30;90.50;;;;;;5006800;28;20084;-61
2021/09/25 05:35:23;;;;;;;17.25;10.30;;;17.30;90.40;;;;;;5029099;28;20045;-61
2021/09/25 05:37:52;;;;;;;16.33;10.30;;;17.30;90.50;;;;;;5028441;28;20050;-61
2021/09/25 05:40:19;;;;;;;16.85;10.70;;;17.20;90.50;;;;;;5021079;28;20556;-61
2021/09/25 05:42:46;;;;;;;19.55;12.75;;;17.30;90.50;;;;;;5027409;28;20053;-60
2021/09/25 05:45:16;;;;;;;16.35;11.55;;;17.30;90.50;;;;;;5028542;28;20076;-61
2021/09/25 05:47:42;;;;;;;15.52;10.60;;;17.30;90.40;;;;;;5028417;28;20077;-61
2021/09/25 05:50:09;;;;;;;16.77;10.88;;;17.30;90.40;;;;;;5028449;28;20077;-62
2021/09/25 05:52:36;;;;;;;17.33;12.18;;;17.30;90.50;;;;;;5028144;28;20088;-61
2021/09/25 05:55:04;;;;;;;18.98;12.05;;;17.20;90.50;;;;;;5027353;28;20099;-62
2021/09/25 05:57:31;;;;;;;17.52;11.77;;;17.10;90.60;;;;;;5027777;28;20045;-60
2021/09/25 05:59:58;;;;;;;15.50;10.77;;;17.10;90.70;;;;;;5028409;28;20144;-61
2021/09/25 06:02:25;;;;;;;20.67;12.48;;;17.10;90.70;;;;;;5010427;28;20130;-61
2021/09/25 06:04:52;;;;;;;17.61;12.94;;;17.20;90.80;;;;;;4679432;28;10000916;-61
2021/09/25 06:07:20;;;;;;;19.52;12.70;;;17.20;90.70;;;;;;5025537;28;20041;-61
2021/09/25 06:09:46;;;;;;;18.65;11.35;;;17.20;90.70;;;;;;5024780;28;20069;-62
2021/09/25 06:12:13;;;;;;;19.90;12.65;;;17.30;90.70;;;;;;5025490;28;20061;-61
2021/09/25 06:14:40;;;;;;;18.65;13.15;;;17.30;90.70;;;;;;5025344;28;20049;-60
2021/09/25 06:17:07;;;;;;;20.52;13.10;;;17.30;90.70;;;;;;5024327;28;20168;-62
2021/09/25 06:19:34;;;;;;;22.38;12.15;;;17.20;90.60;;;;;;5023846;28;20075;-61
2021/09/25 06:22:00;;;;;;;18.05;11.52;;;17.30;90.60;;;;;;5024586;28;20049;-60
2021/09/25 06:24:27;;;;;;;14.45;9.65;;;17.30;90.60;;;;;;5024072;28;20144;-60
2021/09/25 06:26:54;;;;;;;18.02;10.77;;;17.30;90.60;;;;;;5025084;28;20390;-60
2021/09/25 06:29:21;;;;;;;19.25;11.38;;;17.30;90.50;;;;;;5023813;28;20483;-61
2021/09/25 06:31:48;;;;;;;16.80;10.75;;;17.40;90.60;;;;;;5025205;28;20064;-60
2021/09/25 06:34:14;;;;;;;17.85;9.25;;;17.30;90.50;;;;;;5025184;28;20038;-61
2021/09/25 06:36:41;;;;;;;14.15;9.00;;;17.40;90.60;;;;;;5024834;28;20629;-60
2021/09/25 06:39:08;;;;;;;16.60;9.35;;;17.40;90.60;;;;;;5024284;28;20449;-60
2021/09/25 06:41:36;;;;;;;15.60;9.10;;;17.40;90.60;;;;;;5023233;28;20523;-60
2021/09/25 06:44:03;;;;;;;11.60;8.02;;;17.40;90.60;;;;;;5022884;28;20522;-61
2021/09/25 06:46:30;;;;;;;16.38;9.38;;;17.40;90.60;;;;;;5023888;28;20073;-61
2021/09/25 06:48:57;;;;;;;14.40;8.77;;;17.40;90.50;;;;;;5022156;28;20073;-61
2021/09/25 06:51:24;;;;;;;15.88;9.52;;;17.40;90.50;;;;;;5024175;28;20054;-61
2021/09/25 06:53:51;;;;;;;11.30;7.72;;;17.50;90.50;;;;;;5022876;28;20496;-64
2021/09/25 06:56:17;;;;;;;10.45;7.32;;;17.50;90.40;;;;;;5022958;28;20496;-62
2021/09/25 06:58:44;;;;;;;10.90;7.20;;;17.50;90.40;;;;;;5022763;28;20081;-61
2021/09/25 07:01:11;;;;;;;12.68;6.78;;;17.50;90.40;;;;;;5023811;28;20508;-61
2021/09/25 07:03:38;;;;;;;10.63;7.47;;;17.50;90.30;;;;;;5024218;28;20053;-61
2021/09/25 07:06:05;;;;;;;11.93;8.05;;;17.60;90.40;;;;;;5023742;28;20045;-61
2021/09/25 07:08:32;;;;;;;9.73;6.93;;;17.60;90.40;;;;;;5023120;28;20151;-60
2021/09/25 07:10:59;;;;;;;11.23;6.82;;;17.60;90.30;;;;;;5023475;28;20124;-60
2021/09/25 07:13:25;;;;;;;9.07;6.97;;;17.60;90.30;;;;;;5023557;28;20130;-60
2021/09/25 07:15:52;;;;;;;10.88;7.30;;;17.60;90.30;;;;;;5026156;28;20163;-60
2021/09/25 07:18:20;;;;;;;10.32;6.80;;;17.60;90.20;;;;;;5030632;28;20132;-62
2021/09/25 07:20:47;;;;;;;8.73;5.97;;;17.60;90.20;;;;;;5016694;28;20081;-60
2021/09/25 07:23:14;;;;;;;8.23;5.82;;;17.60;90.20;;;;;;5022659;28;20045;-59
2021/09/25 07:25:40;;;;;;;8.65;5.78;;;17.60;90.20;;;;;;5022588;28;20069;-60
2021/09/25 07:28:08;;;;;;;7.93;5.50;;;17.70;90.10;;;;;;5022365;28;20053;-61
2021/09/25 07:30:37;;;;;;;7.20;5.43;;;17.70;90.10;;;;;;5022037;28;20480;-60
2021/09/25 07:33:04;;;;;;;12.57;4.95;;;17.60;90.00;;;;;;5023076;28;20045;-60
2021/09/25 07:35:34;;;;;;;8.23;4.70;;;17.60;90.00;;;;;;5021886;28;20057;-61
2021/09/25 07:38:04;;;;;;;4.38;3.85;;;17.50;89.90;;;;;;5022782;28;20049;-62
2021/09/25 07:40:32;;;;;;;5.03;4.15;;;17.50;90.00;;;;;;5021204;28;20098;-61
2021/09/25 07:42:59;;;;;;;5.75;4.20;;;17.60;89.90;;;;;;5022189;28;20076;-61
2021/09/25 07:45:26;;;;;;;5.68;4.10;;;17.70;89.60;;;;;;5022434;28;20058;-61
2021/09/25 07:47:53;;;;;;;6.85;3.90;;;17.70;89.60;;;;;;5022975;28;20046;-73
2021/09/25 07:50:20;;;;;;;6.10;3.53;;;17.60;89.40;;;;;;5023611;28;20095;-60
2021/09/25 07:52:47;;;;;;;4.45;3.58;;;17.70;89.60;;;;;;5022983;28;20160;-59
2021/09/25 07:55:14;;;;;;;4.75;4.22;;;17.70;89.50;;;;;;5021450;28;20448;-62
2021/09/25 07:57:41;;;;;;;6.95;3.97;;;17.70;89.30;;;;;;5023036;28;20061;-60
2021/09/25 08:00:10;;;;;;;5.20;4.40;;;17.70;89.50;;;;;;5023351;28;20049;-60
2021/09/25 08:02:38;;;;;;;6.43;5.03;;;17.70;89.50;;;;;;5029846;28;20435;-61
2021/09/25 08:05:05;;;;;;;6.18;5.53;;;17.80;89.40;;;;;;5022610;28;20061;-73
2021/09/25 08:07:32;;;;;;;8.02;4.30;;;17.80;89.30;;;;;;5025611;28;20054;-59
2021/09/25 08:09:59;;;;;;;6.10;4.38;;;17.80;89.30;;;;;;5023192;28;20144;-59
2021/09/25 08:12:26;;;;;;;7.53;4.75;;;17.80;89.20;;;;;;5022270;28;20140;-59
2021/09/25 08:14:53;;;;;;;6.68;5.00;;;17.80;89.40;;;;;;5023244;28;20156;-59
2021/09/25 08:17:19;;;;;;;7.88;4.93;;;17.90;89.20;;;;;;5023071;28;20049;-60
2021/09/25 08:19:46;;;;;;;6.65;4.32;;;17.80;88.90;;;;;;5022917;28;20123;-59
2021/09/25 08:22:13;;;;;;;9.50;4.13;;;17.80;89.00;;;;;;5004597;28;20131;-59
2021/09/25 08:24:40;;;;;;;9.43;4.82;;;17.80;89.00;;;;;;5022233;28;20053;-58
2021/09/25 08:27:07;;;;;;;7.40;4.53;;;17.80;88.90;;;;;;5021793;28;20482;-59
2021/09/25 08:29:34;;;;;;;6.00;4.72;;;17.80;88.90;;;;;;5022596;28;20148;-60
2021/09/25 08:32:01;;;;;;;6.07;4.00;;;17.80;88.90;;;;;;5022330;28;20049;-59
2021/09/25 08:34:28;;;;;;;8.40;4.13;;;17.90;89.00;;;;;;5022319;28;20120;-59
2021/09/25 08:36:55;;;;;;;12.63;5.15;;;17.90;88.80;;;;;;5023324;28;20631;-61
2021/09/25 08:39:21;;;;;;;9.45;4.97;;;17.90;88.60;;;;;;5022661;28;20053;-59
2021/09/25 08:41:50;;;;;;;8.70;4.75;;;17.90;88.40;;;;;;5020820;28;20052;-59
2021/09/25 08:44:17;;;;;;;7.63;4.53;;;17.90;88.20;;;;;;5022212;28;20483;-59
2021/09/25 08:46:43;;;;;;;8.10;5.45;;;17.90;88.60;;;;;;5021281;28;20690;-59
2021/09/25 08:49:10;;;;;;;12.15;5.70;;;17.90;88.40;;;;;;5025340;28;20049;-59
2021/09/25 08:51:37;;;;;;;14.05;6.10;;;17.90;88.40;;;;;;5025495;28;20152;-59
2021/09/25 08:54:04;;;;;;;8.55;4.80;;;18.00;88.40;;;;;;5026385;28;20084;-59
2021/09/25 08:56:31;;;;;;;6.35;3.85;;;18.00;88.20;;;;;;5026173;28;20086;-63
2021/09/25 08:58:58;;;;;;;10.45;4.82;;;18.00;88.20;;;;;;5026875;28;20049;-60
2021/09/25 09:01:26;;;;;;;6.43;3.80;;;18.00;88.00;;;;;;5026318;28;20120;-59
2021/09/25 09:03:53;;;;;;;7.47;3.95;;;18.10;87.90;;;;;;5028613;28;20048;-59
2021/09/25 09:06:22;;;;;;;7.85;4.10;;;18.00;87.70;;;;;;5026882;28;20085;-59
2021/09/25 09:08:51;;;;;;;8.35;4.72;;;18.10;87.80;;;;;;5025533;28;20116;-59
2021/09/25 09:11:19;;;;;;;10.32;4.35;;;18.10;87.70;;;;;;5026272;28;20497;-59
2021/09/25 09:13:51;;;;;;;9.82;3.90;;;18.10;87.70;;;;;;5025542;28;20041;-59
2021/09/25 09:16:17;;;;;;;7.35;4.10;;;18.20;87.70;;;;;;5025404;28;20137;-59
2021/09/25 09:18:46;;;;;;;12.00;5.28;;;18.20;87.50;;;;;;5026135;28;20164;-59
2021/09/25 09:21:17;;;;;;;6.97;4.25;;;18.20;88.10;;;;;;5026152;28;20436;-59
2021/09/25 09:24:17;;;;;;;6.20;4.03;;;18.20;87.40;;;;;;5026006;28;20052;-59
2021/09/25 09:26:45;;;;;;;6.15;3.35;;;18.30;87.60;;;;;;5003030;28;20073;-60
2021/09/25 09:29:16;;;;;;;5.25;3.35;;;18.30;87.10;;;;;;5026014;28;20127;-60
2021/09/25 09:31:42;;;;;;;5.00;3.92;;;18.30;86.80;;;;;;5025888;28;20052;-59
2021/09/25 09:34:10;;;;;;;5.15;3.17;;;18.20;86.80;;;;;;5025428;28;20446;-60
2021/09/25 09:36:43;;;;;;;5.47;4.03;;;18.20;87.20;;;;;;5026228;28;20065;-59
2021/09/25 09:39:17;;;;;;;;;;;18.20;87.10;;;;;;5024038;28;20113;-59
2021/09/25 09:41:53;;;;;;;6.13;3.70;;;18.10;87.70;;;;;;5023440;28;19972;-60
2021/09/25 09:44:22;;;;;;;8.93;3.67;;;18.20;87.70;;;;;;5019731;28;20152;-59
2021/09/25 09:46:50;;;;;;;5.18;3.35;;;18.20;87.20;;;;;;5022554;28;20079;-59
2021/09/25 09:49:18;;;;;;;7.18;3.92;;;18.20;87.20;;;;;;5023071;28;20045;-60
2021/09/25 09:51:58;;;;;;;6.43;3.35;;;18.10;87.10;;;;;;5022434;28;20065;-60
2021/09/25 09:54:29;;;;;;;4.97;3.60;;;18.10;87.60;;;;;;5022610;28;20136;-59
2021/09/25 09:57:18;;;;;;;5.07;2.85;;;18.20;87.40;;;;;;5024271;28;20152;-60
2021/09/25 09:59:47;;;;;;;4.50;3.28;;;18.20;87.10;;;;;;5024659;28;20060;-60
2021/09/25 10:02:14;;;;;;;4.85;3.03;;;18.30;86.90;;;;;;5025754;28;20072;-60
2021/09/25 10:04:41;;;;;;;4.88;3.25;;;18.40;86.80;;;;;;5025289;28;20057;-60
2021/09/25 10:07:08;;;;;;;6.25;3.67;;;18.40;86.60;;;;;;5025572;28;20515;-60
2021/09/25 10:09:36;;;;;;;5.65;2.60;;;18.40;86.50;;;;;;5025485;28;20064;-60
2021/09/25 10:12:08;;;;;;;4.20;2.58;;;18.30;86.70;;;;;;5023121;28;20073;-60
2021/09/25 10:14:36;;;;;;;5.15;2.97;;;18.40;86.50;;;;;;5024734;28;20390;-60
2021/09/25 10:17:05;;;;;;;6.88;2.63;;;18.50;86.60;;;;;;5028381;28;20111;-60
2021/09/25 10:19:33;;;;;;;4.28;2.53;;;18.60;86.50;;;;;;5025980;28;20137;-60
2021/09/25 10:22:19;;;;;;;5.38;2.95;;;18.60;86.10;;;;;;5024879;28;20863;-60
2021/09/25 10:24:54;;;;;;;6.55;4.28;;;18.70;85.30;;;;;;5022061;28;20523;-59
2021/09/25 10:27:41;;;;;;;3.25;2.30;;;18.70;85.50;;;;;;5022586;28;20045;-60
2021/09/25 10:30:10;;;;;;;4.13;2.28;;;18.80;85.40;;;;;;5023691;28;20491;-60
2021/09/25 10:32:41;;;;;;;7.78;2.92;;;18.70;85.10;;;;;;5025085;28;20151;-61
2021/09/25 10:35:13;;;;;;;8.45;3.50;;;18.70;85.00;;;;;;5024772;28;20084;-60
2021/09/25 10:37:42;;;;;;;4.22;3.28;;;18.70;85.70;;;;;;5025499;28;20057;-60
2021/09/25 10:40:30;;;;;;;3.97;3.08;;;18.80;85.40;;;;;;5027516;28;20065;-60
2021/09/25 10:43:06;;;;;;;4.18;2.60;;;18.80;85.10;;;;;;5024561;28;20085;-60
2021/09/25 10:45:36;;;;;;;4.75;2.85;;;18.80;85.00;;;;;;5019730;28;20049;-60
2021/09/25 10:48:24;;;;;;;6.32;2.90;;;18.90;85.10;;;;;;5014875;28;20041;-61
2021/09/25 10:51:05;;;;;;;7.28;2.80;;;18.90;84.90;;;;;;5023908;28;20084;-59
2021/09/25 10:53:33;;;;;;;12.32;3.30;;;19.00;84.40;;;;;;5022686;28;20135;-60
2021/09/25 10:56:03;;;;;;;6.57;2.92;;;18.90;84.90;;;;;;5023726;28;20095;-60
2021/09/25 10:58:31;;;;;;;4.35;3.38;;;19.00;85.10;;;;;;5022683;28;20087;-60
2021/09/25 11:00:57;;;;;;;4.03;2.80;;;19.00;84.80;;;;;;5023855;28;20081;-60
2021/09/25 11:03:43;;;;;;;5.57;3.25;;;19.10;84.90;;;;;;5024218;28;20072;-61
2021/09/25 11:06:26;;;;;;;6.85;4.30;;;19.00;84.20;;;;;;5022657;28;20104;-60
2021/09/25 11:09:01;;;;;;;6.68;5.00;;;19.10;84.40;;;;;;5024016;28;20081;-60
2021/09/25 11:11:40;;;;;;;5.95;4.65;;;19.10;84.30;;;;;;5023848;28;20085;-59
2021/09/25 11:14:08;;;;;;;7.53;5.00;;;19.00;83.90;;;;;;5021905;28;20041;-59
2021/09/25 11:16:45;;;;;;;7.10;5.00;;;19.10;84.40;;;;;;5024096;28;20140;-60
2021/09/25 11:19:28;;;;;;;9.15;6.00;;;19.10;83.90;;;;;;5012268;28;20684;-60
2021/09/25 11:22:21;;;;;;;7.07;5.47;;;19.10;83.50;;;;;;5023897;28;20077;-59
2021/09/25 11:24:48;;;;;;;7.20;5.10;;;18.90;84.00;;;;;;5024055;28;20045;-59
2021/09/25 11:27:21;;;;;;;9.55;5.30;;;18.80;84.80;;;;;;5025537;28;20033;-59
2021/09/25 11:30:10;;;;;;;8.40;5.15;;;18.90;84.70;;;;;;5023711;28;20057;-59
2021/09/25 11:32:50;;;;;;;7.07;5.20;;;19.00;84.60;;;;;;5018497;28;20049;-60
2021/09/25 11:35:16;;;;;;;6.20;5.13;;;18.80;84.60;;;;;;5023704;28;20237;-60
2021/09/25 11:38:07;;;;;;;7.28;5.78;;;18.70;85.40;;;;;;5024473;28;20083;-58
2021/09/25 11:40:36;;;;;;;8.38;5.60;;;18.70;85.20;;;;;;5020570;28;20089;-59
2021/09/25 11:43:11;;;;;;;10.00;5.38;;;18.70;84.90;;;;;;5026886;28;20045;-59
2021/09/25 11:45:45;;;;;;;11.13;7.13;;;18.80;84.80;;;;;;5024149;28;20129;-58
2021/09/25 11:48:15;;;;;;;8.75;6.70;;;18.80;84.50;;;;;;5020100;28;20049;-59
2021/09/25 11:50:44;;;;;;;14.80;7.50;;;18.80;84.80;;;;;;5022681;28;20045;-59
2021/09/25 11:53:16;;;;;;;9.38;6.40;;;18.70;85.00;;;;;;5025076;28;20140;-59
2021/09/25 11:55:43;;;;;;;11.30;6.60;;;18.80;85.10;;;;;;5023053;28;20123;-60
2021/09/25 11:58:12;;;;;;;10.07;7.10;;;18.80;84.80;;;;;;5023525;28;20081;-61
2021/09/25 12:00:49;;;;;;;11.88;5.43;;;18.80;84.80;;;;;;5023221;28;20125;-60
2021/09/25 12:03:18;;;;;;;8.52;5.63;;;18.90;84.80;;;;;;5023419;28;20049;-61
2021/09/25 12:05:50;;;;;;;8.70;4.60;;;18.90;84.70;;;;;;5021728;28;20691;-59
2021/09/25 12:08:26;;;;;;;8.13;4.57;;;18.80;84.70;;;;;;5023321;28;20054;-60
2021/09/25 12:11:07;;;;;;;5.65;4.15;;;18.80;85.50;;;;;;5023353;28;20184;-60
2021/09/25 12:13:35;;;;;;;7.45;3.83;;;18.80;85.20;;;;;;5020948;28;20045;-59
2021/09/25 12:16:11;;;;;;;5.65;4.15;;;18.90;84.70;;;;;;5023328;28;20049;-59
2021/09/25 12:18:42;;;;;;;5.75;4.00;;;19.00;84.60;;;;;;5022499;28;20053;-59
2021/09/25 12:21:11;;;;;;;4.68;3.67;;;18.90;84.50;;;;;;5023907;28;20077;-60
2021/09/25 12:23:42;;;;;;;6.00;3.88;;;19.00;84.50;;;;;;5024159;28;20104;-60
2021/09/25 12:26:16;;;;;;;6.43;2.83;;;19.00;84.40;;;;;;5023134;28;20104;-59
2021/09/25 12:28:53;;;;;;;4.53;3.20;;;19.10;84.30;;;;;;5005493;28;20053;-61
2021/09/25 12:31:33;;;;;;;6.50;4.70;;;19.20;84.00;;;;;;5026679;28;20128;-59
2021/09/25 12:34:04;;;;;;;5.38;4.03;;;19.20;83.90;;;;;;5029070;28;20053;-59
2021/09/25 12:36:38;;;;;;;5.88;3.63;;;19.10;84.00;;;;;;5027816;28;20325;-59
2021/09/25 12:39:13;;;;;;;6.53;3.88;;;19.10;84.10;;;;;;5026699;28;20056;-59
2021/09/25 12:41:45;;;;;;;5.93;3.78;;;19.20;83.80;;;;;;5024451;28;20077;-59
2021/09/25 12:44:11;;;;;;;8.10;4.35;;;19.20;83.90;;;;;;5027631;28;20041;-60
2021/09/25 12:46:43;;;;;;;6.78;4.35;;;19.30;83.70;;;;;;5026412;28;20420;-60